sensor_id;sensor_type;location;lat;lon;timestamp;P1;durP1;ratioP1;P2;durP2;ratioP2
23470;SDS011;11908;50.806;4.424;2023-02-24T00:01:41;28.10;;;5.18;;
23470;SDS011;11908;50.806;4.424;2023-02-24T00:04:17;36.83;;;5.70;;
23470;SDS011;11908;50.806;4.424;2023-02-24T00:06:44;25.95;;;5.00;;
23470;SDS011;11908;50.806;4.424;2023-02-24T00:09:17;31.85;;;5.60;;
23470;SDS011;11908;50.806;4.424;2023-02-24T00:11:46;28.30;;;4.40;;
23470;SDS011;11908;50.806;4.424;2023-02-24T00:14:16;29.83;;;5.55;;
23470;SDS011;11908;50.806;4.424;2023-02-24T00:16:43;22.75;;;5.13;;
23470;SDS011;11908;50.806;4.424;2023-02-24T00:19:10;27.52;;;5.88;;
23470;SDS011;11908;50.806;4.424;2023-02-24T00:21:40;25.88;;;4.85;;
23470;SDS011;11908;50.806;4.424;2023-02-24T00:24:07;28.73;;;4.50;;
23470;SDS011;11908;50.806;4.424;2023-02-24T00:26:33;31.83;;;4.95;;
23470;SDS011;11908;50.806;4.424;2023-02-24T00:28:59;29.23;;;4.90;;
23470;SDS011;11908;50.806;4.424;2023-02-24T00:31:28;34.55;;;5.22;;
23470;SDS011;11908;50.806;4.424;2023-02-24T00:33:55;34.85;;;6.00;;
23470;SDS011;11908;50.806;4.424;2023-02-24T00:36:21;32.92;;;6.03;;
23470;SDS011;11908;50.806;4.424;2023-02-24T00:38:51;22.63;;;4.75;;
23470;SDS011;11908;50.806;4.424;2023-02-24T00:41:31;24.73;;;4.20;;
23470;SDS011;11908;50.806;4.424;2023-02-24T00:43:58;32.60;;;6.05;;
23470;SDS011;11908;50.806;4.424;2023-02-24T00:49:00;33.40;;;4.95;;
23470;SDS011;11908;50.806;4.424;2023-02-24T00:51:29;23.60;;;4.93;;
23470;SDS011;11908;50.806;4.424;2023-02-24T00:53:59;32.28;;;4.95;;
23470;SDS011;11908;50.806;4.424;2023-02-24T00:56:26;29.02;;;5.43;;
23470;SDS011;11908;50.806;4.424;2023-02-24T00:58:54;29.15;;;5.40;;
23470;SDS011;11908;50.806;4.424;2023-02-24T01:01:22;26.90;;;4.57;;
23470;SDS011;11908;50.806;4.424;2023-02-24T01:03:51;38.05;;;5.95;;
23470;SDS011;11908;50.806;4.424;2023-02-24T01:06:21;25.38;;;5.10;;
23470;SDS011;11908;50.806;4.424;2023-02-24T01:08:49;29.30;;;5.75;;
23470;SDS011;11908;50.806;4.424;2023-02-24T01:11:20;33.22;;;5.32;;
23470;SDS011;11908;50.806;4.424;2023-02-24T01:14:10;28.13;;;4.55;;
23470;SDS011;11908;50.806;4.424;2023-02-24T01:16:38;23.63;;;5.72;;
23470;SDS011;11908;50.806;4.424;2023-02-24T01:19:05;37.95;;;5.80;;
23470;SDS011;11908;50.806;4.424;2023-02-24T01:21:32;35.40;;;5.78;;
23470;SDS011;11908;50.806;4.424;2023-02-24T01:23:58;36.53;;;5.82;;
23470;SDS011;11908;50.806;4.424;2023-02-24T01:26:24;30.60;;;4.35;;
23470;SDS011;11908;50.806;4.424;2023-02-24T01:28:50;27.70;;;4.80;;
23470;SDS011;11908;50.806;4.424;2023-02-24T01:31:17;22.67;;;4.72;;
23470;SDS011;11908;50.806;4.424;2023-02-24T01:33:47;31.67;;;6.05;;
23470;SDS011;11908;50.806;4.424;2023-02-24T01:38:44;30.60;;;4.65;;
23470;SDS011;11908;50.806;4.424;2023-02-24T01:41:11;26.75;;;4.85;;
23470;SDS011;11908;50.806;4.424;2023-02-24T01:46:30;30.38;;;5.22;;
23470;SDS011;11908;50.806;4.424;2023-02-24T01:49:02;32.03;;;5.00;;
23470;SDS011;11908;50.806;4.424;2023-02-24T01:51:33;26.98;;;5.00;;
23470;SDS011;11908;50.806;4.424;2023-02-24T01:54:02;30.20;;;5.55;;
23470;SDS011;11908;50.806;4.424;2023-02-24T01:56:30;28.55;;;5.05;;
23470;SDS011;11908;50.806;4.424;2023-02-24T01:58:56;28.48;;;5.72;;
23470;SDS011;11908;50.806;4.424;2023-02-24T02:01:24;34.10;;;5.40;;
23470;SDS011;11908;50.806;4.424;2023-02-24T02:03:50;26.08;;;5.60;;
23470;SDS011;11908;50.806;4.424;2023-02-24T02:06:24;42.95;;;5.32;;
23470;SDS011;11908;50.806;4.424;2023-02-24T02:08:51;27.15;;;4.50;;
23470;SDS011;11908;50.806;4.424;2023-02-24T02:11:17;26.38;;;4.85;;
23470;SDS011;11908;50.806;4.424;2023-02-24T02:13:46;26.70;;;6.22;;
23470;SDS011;11908;50.806;4.424;2023-02-24T02:29:36;37.63;;;5.90;;
23470;SDS011;11908;50.806;4.424;2023-02-24T02:35:23;26.08;;;5.00;;
23470;SDS011;11908;50.806;4.424;2023-02-24T02:38:34;24.20;;;5.15;;
23470;SDS011;11908;50.806;4.424;2023-02-24T02:41:14;21.65;;;5.40;;
23470;SDS011;11908;50.806;4.424;2023-02-24T02:46:37;25.40;;;4.53;;
23470;SDS011;11908;50.806;4.424;2023-02-24T02:51:41;20.45;;;4.32;;
23470;SDS011;11908;50.806;4.424;2023-02-24T02:54:17;24.77;;;4.10;;
23470;SDS011;11908;50.806;4.424;2023-02-24T02:56:50;23.02;;;4.95;;
23470;SDS011;11908;50.806;4.424;2023-02-24T02:59:28;27.88;;;5.15;;
23470;SDS011;11908;50.806;4.424;2023-02-24T03:01:55;26.02;;;4.35;;
23470;SDS011;11908;50.806;4.424;2023-02-24T03:04:35;23.55;;;4.18;;
23470;SDS011;11908;50.806;4.424;2023-02-24T03:07:06;25.55;;;4.00;;
23470;SDS011;11908;50.806;4.424;2023-02-24T03:09:35;26.10;;;4.20;;
23470;SDS011;11908;50.806;4.424;2023-02-24T03:12:06;32.75;;;4.80;;
23470;SDS011;11908;50.806;4.424;2023-02-24T03:14:37;22.85;;;4.72;;
23470;SDS011;11908;50.806;4.424;2023-02-24T03:17:08;21.38;;;4.07;;
23470;SDS011;11908;50.806;4.424;2023-02-24T03:19:40;23.67;;;4.57;;
23470;SDS011;11908;50.806;4.424;2023-02-24T03:24:36;22.98;;;4.20;;
23470;SDS011;11908;50.806;4.424;2023-02-24T03:30:06;19.08;;;4.32;;
23470;SDS011;11908;50.806;4.424;2023-02-24T03:32:45;16.20;;;3.75;;
23470;SDS011;11908;50.806;4.424;2023-02-24T03:35:20;21.92;;;4.15;;
23470;SDS011;11908;50.806;4.424;2023-02-24T03:37:53;18.05;;;3.53;;
23470;SDS011;11908;50.806;4.424;2023-02-24T03:40:21;27.45;;;3.85;;
23470;SDS011;11908;50.806;4.424;2023-02-24T03:42:59;18.17;;;3.25;;
23470;SDS011;11908;50.806;4.424;2023-02-24T03:45:41;15.93;;;3.42;;
23470;SDS011;11908;50.806;4.424;2023-02-24T03:48:07;17.23;;;3.20;;
23470;SDS011;11908;50.806;4.424;2023-02-24T03:50:36;21.40;;;3.97;;
23470;SDS011;11908;50.806;4.424;2023-02-24T04:01:24;18.23;;;3.90;;
23470;SDS011;11908;50.806;4.424;2023-02-24T04:06:56;15.43;;;2.90;;
23470;SDS011;11908;50.806;4.424;2023-02-24T04:14:53;11.88;;;2.70;;
23470;SDS011;11908;50.806;4.424;2023-02-24T04:17:45;21.25;;;3.95;;
23470;SDS011;11908;50.806;4.424;2023-02-24T04:20:23;22.23;;;3.45;;
23470;SDS011;11908;50.806;4.424;2023-02-24T04:23:02;14.32;;;2.90;;
23470;SDS011;11908;50.806;4.424;2023-02-24T04:25:35;19.42;;;3.40;;
23470;SDS011;11908;50.806;4.424;2023-02-24T04:28:02;14.68;;;3.03;;
23470;SDS011;11908;50.806;4.424;2023-02-24T04:30:35;21.75;;;3.30;;
23470;SDS011;11908;50.806;4.424;2023-02-24T04:33:04;19.17;;;3.30;;
23470;SDS011;11908;50.806;4.424;2023-02-24T04:35:30;16.60;;;3.00;;
23470;SDS011;11908;50.806;4.424;2023-02-24T04:37:57;18.23;;;3.10;;
23470;SDS011;11908;50.806;4.424;2023-02-24T04:40:23;12.63;;;2.53;;
23470;SDS011;11908;50.806;4.424;2023-02-24T04:42:50;21.13;;;3.13;;
23470;SDS011;11908;50.806;4.424;2023-02-24T04:45:27;18.10;;;3.20;;
23470;SDS011;11908;50.806;4.424;2023-02-24T04:47:55;16.92;;;3.10;;
23470;SDS011;11908;50.806;4.424;2023-02-24T04:50:25;19.40;;;3.38;;
23470;SDS011;11908;50.806;4.424;2023-02-24T04:52:56;16.77;;;3.58;;
23470;SDS011;11908;50.806;4.424;2023-02-24T04:55:27;20.98;;;3.78;;
23470;SDS011;11908;50.806;4.424;2023-02-24T04:57:57;21.08;;;3.40;;
23470;SDS011;11908;50.806;4.424;2023-02-24T05:00:23;13.02;;;2.92;;
23470;SDS011;11908;50.806;4.424;2023-02-24T05:02:59;16.98;;;3.70;;
23470;SDS011;11908;50.806;4.424;2023-02-24T05:05:27;16.05;;;3.67;;
23470;SDS011;11908;50.806;4.424;2023-02-24T05:07:54;21.90;;;3.85;;
23470;SDS011;11908;50.806;4.424;2023-02-24T05:10:21;12.38;;;2.85;;
23470;SDS011;11908;50.806;4.424;2023-02-24T05:12:54;23.50;;;3.60;;
23470;SDS011;11908;50.806;4.424;2023-02-24T05:15:25;19.70;;;4.03;;
23470;SDS011;11908;50.806;4.424;2023-02-24T05:17:58;14.98;;;3.75;;
23470;SDS011;11908;50.806;4.424;2023-02-24T05:20:28;24.83;;;3.70;;
23470;SDS011;11908;50.806;4.424;2023-02-24T05:23:12;20.67;;;3.45;;
23470;SDS011;11908;50.806;4.424;2023-02-24T05:25:38;21.08;;;4.45;;
23470;SDS011;11908;50.806;4.424;2023-02-24T05:28:07;21.13;;;4.35;;
23470;SDS011;11908;50.806;4.424;2023-02-24T05:30:33;14.90;;;3.40;;
23470;SDS011;11908;50.806;4.424;2023-02-24T05:32:59;16.35;;;3.58;;
23470;SDS011;11908;50.806;4.424;2023-02-24T05:35:25;18.33;;;3.28;;
23470;SDS011;11908;50.806;4.424;2023-02-24T05:37:51;18.00;;;3.97;;
23470;SDS011;11908;50.806;4.424;2023-02-24T05:40:16;20.45;;;3.33;;
23470;SDS011;11908;50.806;4.424;2023-02-24T05:42:47;24.60;;;3.78;;
23470;SDS011;11908;50.806;4.424;2023-02-24T05:45:14;16.08;;;3.65;;
23470;SDS011;11908;50.806;4.424;2023-02-24T05:47:39;22.88;;;4.18;;
23470;SDS011;11908;50.806;4.424;2023-02-24T05:50:10;24.80;;;3.72;;
23470;SDS011;11908;50.806;4.424;2023-02-24T05:52:36;18.05;;;3.40;;
23470;SDS011;11908;50.806;4.424;2023-02-24T05:55:02;19.85;;;3.70;;
23470;SDS011;11908;50.806;4.424;2023-02-24T05:57:30;19.20;;;3.10;;
23470;SDS011;11908;50.806;4.424;2023-02-24T05:59:59;19.10;;;3.75;;
23470;SDS011;11908;50.806;4.424;2023-02-24T06:02:33;22.02;;;3.67;;
23470;SDS011;11908;50.806;4.424;2023-02-24T06:05:01;18.20;;;3.38;;
23470;SDS011;11908;50.806;4.424;2023-02-24T06:07:29;24.60;;;4.32;;
23470;SDS011;11908;50.806;4.424;2023-02-24T06:09:59;20.35;;;5.05;;
23470;SDS011;11908;50.806;4.424;2023-02-24T06:12:33;20.13;;;6.28;;
23470;SDS011;11908;50.806;4.424;2023-02-24T06:14:59;16.05;;;5.72;;
23470;SDS011;11908;50.806;4.424;2023-02-24T06:17:26;21.73;;;4.20;;
23470;SDS011;11908;50.806;4.424;2023-02-24T06:19:52;23.80;;;4.35;;
23470;SDS011;11908;50.806;4.424;2023-02-24T06:22:19;13.45;;;3.67;;
23470;SDS011;11908;50.806;4.424;2023-02-24T06:24:47;26.17;;;5.20;;
23470;SDS011;11908;50.806;4.424;2023-02-24T06:27:14;24.10;;;7.00;;
23470;SDS011;11908;50.806;4.424;2023-02-24T06:29:43;18.25;;;4.50;;
23470;SDS011;11908;50.806;4.424;2023-02-24T06:32:09;22.02;;;3.47;;
23470;SDS011;11908;50.806;4.424;2023-02-24T06:34:37;16.58;;;4.07;;
23470;SDS011;11908;50.806;4.424;2023-02-24T06:37:03;21.52;;;3.95;;
23470;SDS011;11908;50.806;4.424;2023-02-24T06:39:31;18.20;;;3.83;;
23470;SDS011;11908;50.806;4.424;2023-02-24T06:41:58;23.38;;;4.43;;
23470;SDS011;11908;50.806;4.424;2023-02-24T06:44:31;27.20;;;4.82;;
23470;SDS011;11908;50.806;4.424;2023-02-24T06:46:58;27.02;;;4.88;;
23470;SDS011;11908;50.806;4.424;2023-02-24T06:49:24;26.10;;;5.00;;
23470;SDS011;11908;50.806;4.424;2023-02-24T06:51:50;17.63;;;4.80;;
23470;SDS011;11908;50.806;4.424;2023-02-24T06:54:18;28.42;;;6.82;;
23470;SDS011;11908;50.806;4.424;2023-02-24T06:56:46;43.20;;;5.13;;
23470;SDS011;11908;50.806;4.424;2023-02-24T06:59:14;21.70;;;4.60;;
23470;SDS011;11908;50.806;4.424;2023-02-24T07:01:46;20.10;;;3.60;;
23470;SDS011;11908;50.806;4.424;2023-02-24T07:04:12;21.75;;;3.83;;
23470;SDS011;11908;50.806;4.424;2023-02-24T07:06:39;20.50;;;4.18;;
23470;SDS011;11908;50.806;4.424;2023-02-24T07:09:07;24.10;;;4.72;;
23470;SDS011;11908;50.806;4.424;2023-02-24T07:11:35;16.10;;;4.00;;
23470;SDS011;11908;50.806;4.424;2023-02-24T07:14:01;22.23;;;4.00;;
23470;SDS011;11908;50.806;4.424;2023-02-24T07:16:30;18.52;;;4.03;;
23470;SDS011;11908;50.806;4.424;2023-02-24T07:19:00;20.45;;;4.55;;
23470;SDS011;11908;50.806;4.424;2023-02-24T07:21:28;22.25;;;4.03;;
23470;SDS011;11908;50.806;4.424;2023-02-24T07:23:55;20.83;;;4.30;;
23470;SDS011;11908;50.806;4.424;2023-02-24T07:26:22;16.63;;;5.53;;
23470;SDS011;11908;50.806;4.424;2023-02-24T07:28:49;17.55;;;4.57;;
23470;SDS011;11908;50.806;4.424;2023-02-24T07:31:18;19.90;;;4.30;;
23470;SDS011;11908;50.806;4.424;2023-02-24T07:33:46;22.65;;;4.70;;
23470;SDS011;11908;50.806;4.424;2023-02-24T07:36:13;19.85;;;4.80;;
23470;SDS011;11908;50.806;4.424;2023-02-24T07:38:42;21.95;;;5.13;;
23470;SDS011;11908;50.806;4.424;2023-02-24T07:41:10;19.98;;;4.78;;
23470;SDS011;11908;50.806;4.424;2023-02-24T07:43:39;22.85;;;6.03;;
23470;SDS011;11908;50.806;4.424;2023-02-24T07:46:13;20.27;;;4.85;;
23470;SDS011;11908;50.806;4.424;2023-02-24T07:48:41;18.75;;;5.32;;
23470;SDS011;11908;50.806;4.424;2023-02-24T07:51:10;18.08;;;5.65;;
23470;SDS011;11908;50.806;4.424;2023-02-24T07:53:41;21.98;;;6.50;;
23470;SDS011;11908;50.806;4.424;2023-02-24T07:56:14;25.77;;;6.18;;
23470;SDS011;11908;50.806;4.424;2023-02-24T07:58:44;27.67;;;5.97;;
23470;SDS011;11908;50.806;4.424;2023-02-24T08:01:15;16.85;;;4.65;;
23470;SDS011;11908;50.806;4.424;2023-02-24T08:03:48;19.52;;;5.03;;
23470;SDS011;11908;50.806;4.424;2023-02-24T08:06:16;20.52;;;5.63;;
23470;SDS011;11908;50.806;4.424;2023-02-24T08:08:51;18.45;;;4.97;;
23470;SDS011;11908;50.806;4.424;2023-02-24T08:11:26;23.67;;;6.00;;
23470;SDS011;11908;50.806;4.424;2023-02-24T08:14:03;29.50;;;6.63;;
23470;SDS011;11908;50.806;4.424;2023-02-24T08:16:35;18.83;;;5.75;;
23470;SDS011;11908;50.806;4.424;2023-02-24T08:19:14;21.30;;;5.88;;
23470;SDS011;11908;50.806;4.424;2023-02-24T08:21:45;28.27;;;5.90;;
23470;SDS011;11908;50.806;4.424;2023-02-24T08:24:15;25.95;;;5.60;;
23470;SDS011;11908;50.806;4.424;2023-02-24T08:26:52;18.42;;;5.13;;
23470;SDS011;11908;50.806;4.424;2023-02-24T08:29:33;21.02;;;5.03;;
23470;SDS011;11908;50.806;4.424;2023-02-24T08:32:36;23.05;;;5.10;;
23470;SDS011;11908;50.806;4.424;2023-02-24T08:35:12;22.60;;;4.38;;
23470;SDS011;11908;50.806;4.424;2023-02-24T08:37:46;13.05;;;3.95;;
23470;SDS011;11908;50.806;4.424;2023-02-24T08:40:32;19.55;;;4.32;;
23470;SDS011;11908;50.806;4.424;2023-02-24T08:48:10;13.23;;;3.55;;
23470;SDS011;11908;50.806;4.424;2023-02-24T08:50:45;49.45;;;5.50;;
23470;SDS011;11908;50.806;4.424;2023-02-24T08:53:12;20.33;;;3.90;;
23470;SDS011;11908;50.806;4.424;2023-02-24T08:55:46;22.95;;;4.25;;
23470;SDS011;11908;50.806;4.424;2023-02-24T08:58:16;23.30;;;3.67;;
23470;SDS011;11908;50.806;4.424;2023-02-24T09:00:43;17.75;;;3.95;;
23470;SDS011;11908;50.806;4.424;2023-02-24T09:03:16;19.67;;;3.67;;
23470;SDS011;11908;50.806;4.424;2023-02-24T09:05:59;17.35;;;3.90;;
23470;SDS011;11908;50.806;4.424;2023-02-24T09:08:31;21.77;;;4.05;;
23470;SDS011;11908;50.806;4.424;2023-02-24T09:11:01;23.35;;;5.05;;
23470;SDS011;11908;50.806;4.424;2023-02-24T09:13:37;49.00;;;4.82;;
23470;SDS011;11908;50.806;4.424;2023-02-24T09:16:19;18.17;;;3.75;;
23470;SDS011;11908;50.806;4.424;2023-02-24T09:18:47;16.50;;;3.45;;
23470;SDS011;11908;50.806;4.424;2023-02-24T09:21:34;30.92;;;3.47;;
23470;SDS011;11908;50.806;4.424;2023-02-24T09:24:12;19.02;;;4.25;;
23470;SDS011;11908;50.806;4.424;2023-02-24T09:26:37;19.98;;;2.90;;
23470;SDS011;11908;50.806;4.424;2023-02-24T09:29:12;21.58;;;3.72;;
23470;SDS011;11908;50.806;4.424;2023-02-24T09:31:56;16.45;;;2.97;;
23470;SDS011;11908;50.806;4.424;2023-02-24T09:34:33;9.23;;;2.42;;
23470;SDS011;11908;50.806;4.424;2023-02-24T09:37:01;6.93;;;2.25;;
23470;SDS011;11908;50.806;4.424;2023-02-24T09:39:32;18.15;;;4.55;;
23470;SDS011;11908;50.806;4.424;2023-02-24T09:42:21;11.77;;;2.60;;
23470;SDS011;11908;50.806;4.424;2023-02-24T09:44:49;12.80;;;2.30;;
23470;SDS011;11908;50.806;4.424;2023-02-24T09:47:22;12.57;;;2.70;;
23470;SDS011;11908;50.806;4.424;2023-02-24T09:52:48;9.10;;;2.42;;
23470;SDS011;11908;50.806;4.424;2023-02-24T09:55:17;14.20;;;2.50;;
23470;SDS011;11908;50.806;4.424;2023-02-24T09:57:49;14.55;;;3.30;;
23470;SDS011;11908;50.806;4.424;2023-02-24T10:03:44;14.43;;;3.15;;
23470;SDS011;11908;50.806;4.424;2023-02-24T10:11:39;16.45;;;3.65;;
23470;SDS011;11908;50.806;4.424;2023-02-24T10:14:22;17.33;;;2.60;;
23470;SDS011;11908;50.806;4.424;2023-02-24T10:17:24;15.57;;;3.80;;
23470;SDS011;11908;50.806;4.424;2023-02-24T10:20:04;10.18;;;3.08;;
23470;SDS011;11908;50.806;4.424;2023-02-24T10:22:52;8.70;;;2.20;;
23470;SDS011;11908;50.806;4.424;2023-02-24T10:25:41;19.00;;;3.40;;
23470;SDS011;11908;50.806;4.424;2023-02-24T10:31:07;8.88;;;3.35;;
23470;SDS011;11908;50.806;4.424;2023-02-24T10:33:51;10.43;;;2.70;;
23470;SDS011;11908;50.806;4.424;2023-02-24T10:36:44;11.27;;;3.78;;
23470;SDS011;11908;50.806;4.424;2023-02-24T10:41:51;15.88;;;3.10;;
23470;SDS011;11908;50.806;4.424;2023-02-24T10:44:22;15.38;;;3.33;;
23470;SDS011;11908;50.806;4.424;2023-02-24T10:47:00;20.20;;;3.95;;
23470;SDS011;11908;50.806;4.424;2023-02-24T10:49:42;12.63;;;2.80;;
23470;SDS011;11908;50.806;4.424;2023-02-24T10:52:31;11.05;;;2.75;;
23470;SDS011;11908;50.806;4.424;2023-02-24T11:01:35;14.60;;;3.53;;
23470;SDS011;11908;50.806;4.424;2023-02-24T11:04:28;13.73;;;3.03;;
23470;SDS011;11908;50.806;4.424;2023-02-24T11:07:18;15.25;;;3.85;;
23470;SDS011;11908;50.806;4.424;2023-02-24T11:10:30;11.25;;;3.20;;
23470;SDS011;11908;50.806;4.424;2023-02-24T11:12:50;10.68;;;3.42;;
23470;SDS011;11908;50.806;4.424;2023-02-24T11:18:27;15.27;;;2.72;;
23470;SDS011;11908;50.806;4.424;2023-02-24T11:20:58;17.23;;;3.60;;
23470;SDS011;11908;50.806;4.424;2023-02-24T11:26:16;13.10;;;3.30;;
23470;SDS011;11908;50.806;4.424;2023-02-24T11:36:53;9.32;;;3.22;;
23470;SDS011;11908;50.806;4.424;2023-02-24T11:42:03;11.25;;;3.40;;
23470;SDS011;11908;50.806;4.424;2023-02-24T11:44:36;9.50;;;3.17;;
23470;SDS011;11908;50.806;4.424;2023-02-24T11:47:16;12.32;;;3.22;;
23470;SDS011;11908;50.806;4.424;2023-02-24T11:49:50;9.00;;;2.60;;
23470;SDS011;11908;50.806;4.424;2023-02-24T11:52:26;15.85;;;2.92;;
23470;SDS011;11908;50.806;4.424;2023-02-24T11:54:57;8.55;;;2.78;;
23470;SDS011;11908;50.806;4.424;2023-02-24T11:57:29;9.80;;;3.17;;
23470;SDS011;11908;50.806;4.424;2023-02-24T12:00:06;13.40;;;3.25;;
23470;SDS011;11908;50.806;4.424;2023-02-24T12:02:46;13.00;;;3.13;;
23470;SDS011;11908;50.806;4.424;2023-02-24T12:05:35;12.65;;;2.42;;
23470;SDS011;11908;50.806;4.424;2023-02-24T12:08:20;9.13;;;2.65;;
23470;SDS011;11908;50.806;4.424;2023-02-24T12:10:55;12.32;;;3.30;;
23470;SDS011;11908;50.806;4.424;2023-02-24T12:13:44;15.93;;;3.00;;
23470;SDS011;11908;50.806;4.424;2023-02-24T12:16:18;13.25;;;3.15;;
23470;SDS011;11908;50.806;4.424;2023-02-24T12:18:56;16.27;;;3.30;;
23470;SDS011;11908;50.806;4.424;2023-02-24T12:21:30;17.80;;;3.17;;
23470;SDS011;11908;50.806;4.424;2023-02-24T12:23:58;13.18;;;2.88;;
23470;SDS011;11908;50.806;4.424;2023-02-24T12:26:31;14.23;;;3.78;;
23470;SDS011;11908;50.806;4.424;2023-02-24T12:32:00;15.02;;;3.95;;
23470;SDS011;11908;50.806;4.424;2023-02-24T12:43:44;19.98;;;3.72;;
23470;SDS011;11908;50.806;4.424;2023-02-24T12:46:32;16.73;;;2.65;;
23470;SDS011;11908;50.806;4.424;2023-02-24T13:13:52;14.43;;;3.30;;
23470;SDS011;11908;50.806;4.424;2023-02-24T13:16:27;17.00;;;4.00;;
23470;SDS011;11908;50.806;4.424;2023-02-24T13:24:33;17.10;;;4.55;;
23470;SDS011;11908;50.806;4.424;2023-02-24T13:27:16;16.77;;;4.25;;
23470;SDS011;11908;50.806;4.424;2023-02-24T13:29:49;26.90;;;5.63;;
23470;SDS011;11908;50.806;4.424;2023-02-24T13:32:27;21.20;;;4.35;;
23470;SDS011;11908;50.806;4.424;2023-02-24T13:35:05;13.75;;;4.40;;
23470;SDS011;11908;50.806;4.424;2023-02-24T13:37:49;15.30;;;4.95;;
23470;SDS011;11908;50.806;4.424;2023-02-24T13:51:00;13.82;;;4.57;;
23470;SDS011;11908;50.806;4.424;2023-02-24T13:56:42;20.83;;;5.43;;
23470;SDS011;11908;50.806;4.424;2023-02-24T14:02:18;12.48;;;4.82;;
23470;SDS011;11908;50.806;4.424;2023-02-24T14:04:50;12.25;;;5.18;;
23470;SDS011;11908;50.806;4.424;2023-02-24T14:07:22;20.23;;;5.95;;
23470;SDS011;11908;50.806;4.424;2023-02-24T14:09:52;11.40;;;5.50;;
23470;SDS011;11908;50.806;4.424;2023-02-24T14:12:26;10.07;;;5.40;;
23470;SDS011;11908;50.806;4.424;2023-02-24T14:14:55;18.40;;;6.40;;
23470;SDS011;11908;50.806;4.424;2023-02-24T14:17:23;13.98;;;7.47;;
23470;SDS011;11908;50.806;4.424;2023-02-24T14:22:44;19.42;;;8.75;;
23470;SDS011;11908;50.806;4.424;2023-02-24T14:25:12;18.17;;;9.05;;
23470;SDS011;11908;50.806;4.424;2023-02-24T14:27:41;15.88;;;9.05;;
23470;SDS011;11908;50.806;4.424;2023-02-24T14:30:30;21.63;;;9.65;;
23470;SDS011;11908;50.806;4.424;2023-02-24T14:32:59;20.40;;;10.07;;
23470;SDS011;11908;50.806;4.424;2023-02-24T14:35:31;25.63;;;9.93;;
23470;SDS011;11908;50.806;4.424;2023-02-24T14:37:58;20.60;;;9.68;;
23470;SDS011;11908;50.806;4.424;2023-02-24T14:40:24;25.25;;;10.95;;
23470;SDS011;11908;50.806;4.424;2023-02-24T14:42:51;24.58;;;9.73;;
23470;SDS011;11908;50.806;4.424;2023-02-24T14:45:19;22.63;;;10.38;;
23470;SDS011;11908;50.806;4.424;2023-02-24T14:47:46;18.77;;;11.77;;
23470;SDS011;11908;50.806;4.424;2023-02-24T14:50:31;33.97;;;11.23;;
23470;SDS011;11908;50.806;4.424;2023-02-24T14:53:00;25.80;;;11.13;;
23470;SDS011;11908;50.806;4.424;2023-02-24T14:55:30;23.50;;;10.63;;
23470;SDS011;11908;50.806;4.424;2023-02-24T14:58:02;22.23;;;10.35;;
23470;SDS011;11908;50.806;4.424;2023-02-24T15:00:40;21.65;;;11.25;;
23470;SDS011;11908;50.806;4.424;2023-02-24T15:03:15;24.00;;;13.02;;
23470;SDS011;11908;50.806;4.424;2023-02-24T15:05:43;25.30;;;11.75;;
23470;SDS011;11908;50.806;4.424;2023-02-24T15:08:45;21.60;;;10.77;;
23470;SDS011;11908;50.806;4.424;2023-02-24T15:13:40;22.08;;;10.20;;
23470;SDS011;11908;50.806;4.424;2023-02-24T15:16:32;16.27;;;9.73;;
23470;SDS011;11908;50.806;4.424;2023-02-24T15:19:22;17.98;;;10.25;;
23470;SDS011;11908;50.806;4.424;2023-02-24T15:21:56;23.75;;;10.50;;
23470;SDS011;11908;50.806;4.424;2023-02-24T15:24:26;18.13;;;9.70;;
23470;SDS011;11908;50.806;4.424;2023-02-24T15:30:00;21.33;;;9.40;;
23470;SDS011;11908;50.806;4.424;2023-02-24T15:32:33;15.25;;;9.40;;
23470;SDS011;11908;50.806;4.424;2023-02-24T15:35:01;18.38;;;10.18;;
23470;SDS011;11908;50.806;4.424;2023-02-24T15:37:30;16.02;;;8.63;;
23470;SDS011;11908;50.806;4.424;2023-02-24T15:40:10;13.57;;;8.63;;
23470;SDS011;11908;50.806;4.424;2023-02-24T15:42:56;16.13;;;8.70;;
23470;SDS011;11908;50.806;4.424;2023-02-24T15:47:52;13.70;;;9.70;;
23470;SDS011;11908;50.806;4.424;2023-02-24T15:50:20;19.42;;;9.48;;
23470;SDS011;11908;50.806;4.424;2023-02-24T15:52:46;18.73;;;9.82;;
23470;SDS011;11908;50.806;4.424;2023-02-24T15:55:16;15.68;;;9.70;;
23470;SDS011;11908;50.806;4.424;2023-02-24T15:57:43;13.25;;;9.32;;
23470;SDS011;11908;50.806;4.424;2023-02-24T16:00:11;18.05;;;10.10;;
23470;SDS011;11908;50.806;4.424;2023-02-24T16:02:39;17.10;;;9.77;;
23470;SDS011;11908;50.806;4.424;2023-02-24T16:05:05;19.13;;;11.15;;
23470;SDS011;11908;50.806;4.424;2023-02-24T16:07:32;23.52;;;13.05;;
23470;SDS011;11908;50.806;4.424;2023-02-24T16:10:00;20.95;;;11.73;;
23470;SDS011;11908;50.806;4.424;2023-02-24T16:12:28;18.98;;;12.38;;
23470;SDS011;11908;50.806;4.424;2023-02-24T16:14:57;15.68;;;11.90;;
23470;SDS011;11908;50.806;4.424;2023-02-24T16:20:03;17.60;;;11.82;;
23470;SDS011;11908;50.806;4.424;2023-02-24T16:22:35;20.30;;;13.25;;
23470;SDS011;11908;50.806;4.424;2023-02-24T16:25:01;23.05;;;13.00;;
23470;SDS011;11908;50.806;4.424;2023-02-24T16:27:27;17.67;;;12.48;;
23470;SDS011;11908;50.806;4.424;2023-02-24T16:29:54;19.17;;;12.25;;
23470;SDS011;11908;50.806;4.424;2023-02-24T16:32:21;17.50;;;10.85;;
23470;SDS011;11908;50.806;4.424;2023-02-24T16:34:49;19.80;;;11.80;;
23470;SDS011;11908;50.806;4.424;2023-02-24T16:37:19;22.35;;;12.68;;
23470;SDS011;11908;50.806;4.424;2023-02-24T16:39:51;22.70;;;12.90;;
23470;SDS011;11908;50.806;4.424;2023-02-24T16:42:16;20.08;;;12.88;;
23470;SDS011;11908;50.806;4.424;2023-02-24T16:44:43;22.73;;;12.38;;
23470;SDS011;11908;50.806;4.424;2023-02-24T16:47:12;22.60;;;12.90;;
23470;SDS011;11908;50.806;4.424;2023-02-24T16:49:43;22.45;;;12.98;;
23470;SDS011;11908;50.806;4.424;2023-02-24T16:52:12;27.98;;;13.88;;
23470;SDS011;11908;50.806;4.424;2023-02-24T16:54:38;27.17;;;12.95;;
23470;SDS011;11908;50.806;4.424;2023-02-24T16:57:05;24.73;;;11.98;;
23470;SDS011;11908;50.806;4.424;2023-02-24T16:59:31;17.80;;;12.43;;
23470;SDS011;11908;50.806;4.424;2023-02-24T17:01:56;23.90;;;13.63;;
23470;SDS011;11908;50.806;4.424;2023-02-24T17:04:23;20.55;;;12.25;;
23470;SDS011;11908;50.806;4.424;2023-02-24T17:06:49;27.00;;;13.02;;
23470;SDS011;11908;50.806;4.424;2023-02-24T17:09:15;25.60;;;12.68;;
23470;SDS011;11908;50.806;4.424;2023-02-24T17:11:42;24.33;;;13.00;;
23470;SDS011;11908;50.806;4.424;2023-02-24T17:14:15;22.38;;;12.32;;
23470;SDS011;11908;50.806;4.424;2023-02-24T17:16:41;29.23;;;12.45;;
23470;SDS011;11908;50.806;4.424;2023-02-24T17:19:07;22.05;;;10.85;;
23470;SDS011;11908;50.806;4.424;2023-02-24T17:21:33;24.35;;;11.32;;
23470;SDS011;11908;50.806;4.424;2023-02-24T17:23:59;20.63;;;9.90;;
23470;SDS011;11908;50.806;4.424;2023-02-24T17:26:24;26.35;;;10.27;;
23470;SDS011;11908;50.806;4.424;2023-02-24T17:28:50;24.95;;;9.80;;
23470;SDS011;11908;50.806;4.424;2023-02-24T17:31:16;24.08;;;9.65;;
23470;SDS011;11908;50.806;4.424;2023-02-24T17:33:42;26.90;;;11.00;;
23470;SDS011;11908;50.806;4.424;2023-02-24T17:36:08;26.73;;;10.43;;
23470;SDS011;11908;50.806;4.424;2023-02-24T17:38:33;32.17;;;9.57;;
23470;SDS011;11908;50.806;4.424;2023-02-24T17:40:59;34.90;;;10.05;;
23470;SDS011;11908;50.806;4.424;2023-02-24T17:43:26;26.83;;;9.43;;
23470;SDS011;11908;50.806;4.424;2023-02-24T17:45:53;28.55;;;8.38;;
23470;SDS011;11908;50.806;4.424;2023-02-24T17:48:18;26.23;;;8.07;;
23470;SDS011;11908;50.806;4.424;2023-02-24T17:50:45;22.67;;;7.22;;